sensor_id;sensor_type;location;lat;lon;timestamp;P1;durP1;ratioP1;P2;durP2;ratioP2
13805;SDS011;6974;53.606;9.872;2023-03-23T00:03:25;10.30;;;8.33;;
13805;SDS011;6974;53.606;9.872;2023-03-23T00:05:55;9.53;;;7.97;;
13805;SDS011;6974;53.606;9.872;2023-03-23T00:08:25;10.57;;;8.77;;
13805;SDS011;6974;53.606;9.872;2023-03-23T00:10:54;10.47;;;8.73;;
13805;SDS011;6974;53.606;9.872;2023-03-23T00:13:22;10.50;;;9.20;;
13805;SDS011;6974;53.606;9.872;2023-03-23T00:15:50;11.10;;;9.93;;
13805;SDS011;6974;53.606;9.872;2023-03-23T00:18:18;11.43;;;8.97;;
13805;SDS011;6974;53.606;9.872;2023-03-23T00:20:49;11.33;;;10.00;;
13805;SDS011;6974;53.606;9.872;2023-03-23T00:23:19;12.93;;;9.20;;
13805;SDS011;6974;53.606;9.872;2023-03-23T00:25:48;11.80;;;10.60;;
13805;SDS011;6974;53.606;9.872;2023-03-23T00:28:16;12.10;;;10.43;;
13805;SDS011;6974;53.606;9.872;2023-03-23T00:30:53;12.20;;;10.93;;
13805;SDS011;6974;53.606;9.872;2023-03-23T00:33:23;13.07;;;11.03;;
13805;SDS011;6974;53.606;9.872;2023-03-23T00:35:51;12.70;;;11.40;;
13805;SDS011;6974;53.606;9.872;2023-03-23T00:38:21;13.03;;;11.73;;
13805;SDS011;6974;53.606;9.872;2023-03-23T00:40:49;12.90;;;11.67;;
13805;SDS011;6974;53.606;9.872;2023-03-23T00:43:17;13.97;;;12.33;;
13805;SDS011;6974;53.606;9.872;2023-03-23T00:45:46;13.90;;;12.60;;
13805;SDS011;6974;53.606;9.872;2023-03-23T00:48:17;14.27;;;12.87;;
13805;SDS011;6974;53.606;9.872;2023-03-23T00:50:44;13.87;;;12.63;;
13805;SDS011;6974;53.606;9.872;2023-03-23T00:53:12;14.37;;;13.07;;
13805;SDS011;6974;53.606;9.872;2023-03-23T00:55:41;14.80;;;13.30;;
13805;SDS011;6974;53.606;9.872;2023-03-23T00:58:08;14.73;;;13.23;;
13805;SDS011;6974;53.606;9.872;2023-03-23T01:00:36;14.60;;;13.20;;
13805;SDS011;6974;53.606;9.872;2023-03-23T01:03:04;14.10;;;12.80;;
13805;SDS011;6974;53.606;9.872;2023-03-23T01:05:34;13.83;;;12.53;;
13805;SDS011;6974;53.606;9.872;2023-03-23T01:08:02;14.30;;;12.93;;
13805;SDS011;6974;53.606;9.872;2023-03-23T01:10:30;14.10;;;12.80;;
13805;SDS011;6974;53.606;9.872;2023-03-23T01:13:00;15.00;;;13.60;;
13805;SDS011;6974;53.606;9.872;2023-03-23T01:15:27;15.20;;;13.67;;
13805;SDS011;6974;53.606;9.872;2023-03-23T01:17:55;14.63;;;13.13;;
13805;SDS011;6974;53.606;9.872;2023-03-23T01:20:23;14.87;;;13.47;;
13805;SDS011;6974;53.606;9.872;2023-03-23T01:22:51;16.07;;;14.47;;
13805;SDS011;6974;53.606;9.872;2023-03-23T01:25:25;16.07;;;14.57;;
13805;SDS011;6974;53.606;9.872;2023-03-23T01:27:52;15.60;;;14.03;;
13805;SDS011;6974;53.606;9.872;2023-03-23T01:30:21;16.07;;;14.53;;
13805;SDS011;6974;53.606;9.872;2023-03-23T01:32:49;15.87;;;14.17;;
13805;SDS011;6974;53.606;9.872;2023-03-23T01:35:17;16.63;;;15.00;;
13805;SDS011;6974;53.606;9.872;2023-03-23T01:37:45;16.10;;;14.57;;
13805;SDS011;6974;53.606;9.872;2023-03-23T01:40:13;14.63;;;13.13;;
13805;SDS011;6974;53.606;9.872;2023-03-23T01:42:42;16.27;;;14.77;;
13805;SDS011;6974;53.606;9.872;2023-03-23T01:48:05;17.20;;;15.40;;
13805;SDS011;6974;53.606;9.872;2023-03-23T01:50:42;16.13;;;14.63;;
13805;SDS011;6974;53.606;9.872;2023-03-23T01:53:14;16.60;;;14.53;;
13805;SDS011;6974;53.606;9.872;2023-03-23T01:55:42;17.57;;;14.60;;
13805;SDS011;6974;53.606;9.872;2023-03-23T01:58:13;16.20;;;14.57;;
13805;SDS011;6974;53.606;9.872;2023-03-23T02:00:44;17.90;;;15.77;;
13805;SDS011;6974;53.606;9.872;2023-03-23T02:03:13;18.03;;;16.40;;
13805;SDS011;6974;53.606;9.872;2023-03-23T02:05:42;17.23;;;15.63;;
13805;SDS011;6974;53.606;9.872;2023-03-23T02:08:10;17.33;;;15.43;;
13805;SDS011;6974;53.606;9.872;2023-03-23T02:10:39;17.37;;;15.67;;
13805;SDS011;6974;53.606;9.872;2023-03-23T02:13:07;16.77;;;15.03;;
13805;SDS011;6974;53.606;9.872;2023-03-23T02:15:40;17.23;;;15.47;;
13805;SDS011;6974;53.606;9.872;2023-03-23T02:18:16;16.57;;;14.87;;
13805;SDS011;6974;53.606;9.872;2023-03-23T02:21:06;17.40;;;15.07;;
13805;SDS011;6974;53.606;9.872;2023-03-23T02:26:58;15.63;;;14.20;;
13805;SDS011;6974;53.606;9.872;2023-03-23T02:35:37;15.47;;;13.70;;
13805;SDS011;6974;53.606;9.872;2023-03-23T02:38:07;15.30;;;13.70;;
13805;SDS011;6974;53.606;9.872;2023-03-23T02:40:40;16.37;;;13.73;;
13805;SDS011;6974;53.606;9.872;2023-03-23T02:43:12;14.87;;;13.37;;
13805;SDS011;6974;53.606;9.872;2023-03-23T02:45:44;14.13;;;12.70;;
13805;SDS011;6974;53.606;9.872;2023-03-23T02:48:14;14.37;;;12.97;;
13805;SDS011;6974;53.606;9.872;2023-03-23T02:50:45;14.33;;;12.83;;
13805;SDS011;6974;53.606;9.872;2023-03-23T02:53:18;14.20;;;12.80;;
13805;SDS011;6974;53.606;9.872;2023-03-23T02:55:47;14.37;;;13.07;;
13805;SDS011;6974;53.606;9.872;2023-03-23T02:58:18;14.27;;;12.87;;
13805;SDS011;6974;53.606;9.872;2023-03-23T03:00:48;14.23;;;12.93;;
13805;SDS011;6974;53.606;9.872;2023-03-23T03:03:16;12.90;;;11.80;;
13805;SDS011;6974;53.606;9.872;2023-03-23T03:05:50;13.43;;;12.13;;
13805;SDS011;6974;53.606;9.872;2023-03-23T03:08:24;13.40;;;12.10;;
13805;SDS011;6974;53.606;9.872;2023-03-23T03:11:01;12.77;;;11.53;;
13805;SDS011;6974;53.606;9.872;2023-03-23T03:13:35;13.50;;;12.20;;
13805;SDS011;6974;53.606;9.872;2023-03-23T03:16:10;13.80;;;12.43;;
13805;SDS011;6974;53.606;9.872;2023-03-23T03:18:47;14.13;;;12.70;;
13805;SDS011;6974;53.606;9.872;2023-03-23T03:21:21;13.97;;;12.47;;
13805;SDS011;6974;53.606;9.872;2023-03-23T03:23:54;13.80;;;12.40;;
13805;SDS011;6974;53.606;9.872;2023-03-23T03:26:25;13.03;;;11.83;;
13805;SDS011;6974;53.606;9.872;2023-03-23T03:28:54;14.80;;;13.37;;
13805;SDS011;6974;53.606;9.872;2023-03-23T03:31:22;12.87;;;11.73;;
13805;SDS011;6974;53.606;9.872;2023-03-23T03:33:53;13.63;;;12.43;;
13805;SDS011;6974;53.606;9.872;2023-03-23T03:36:24;14.87;;;13.00;;
13805;SDS011;6974;53.606;9.872;2023-03-23T03:38:59;14.10;;;12.70;;
13805;SDS011;6974;53.606;9.872;2023-03-23T03:41:28;14.40;;;13.00;;
13805;SDS011;6974;53.606;9.872;2023-03-23T03:43:55;13.60;;;12.20;;
13805;SDS011;6974;53.606;9.872;2023-03-23T03:46:23;13.87;;;12.53;;
13805;SDS011;6974;53.606;9.872;2023-03-23T03:48:54;13.40;;;12.23;;
13805;SDS011;6974;53.606;9.872;2023-03-23T03:51:23;14.10;;;12.70;;
13805;SDS011;6974;53.606;9.872;2023-03-23T03:53:51;14.80;;;13.27;;
13805;SDS011;6974;53.606;9.872;2023-03-23T03:56:18;13.77;;;12.47;;
13805;SDS011;6974;53.606;9.872;2023-03-23T03:58:47;14.13;;;12.73;;
13805;SDS011;6974;53.606;9.872;2023-03-23T04:01:15;14.50;;;13.13;;
13805;SDS011;6974;53.606;9.872;2023-03-23T04:03:43;12.97;;;11.77;;
13805;SDS011;6974;53.606;9.872;2023-03-23T04:06:10;13.23;;;12.03;;
13805;SDS011;6974;53.606;9.872;2023-03-23T04:08:40;12.20;;;11.00;;
13805;SDS011;6974;53.606;9.872;2023-03-23T04:11:08;13.33;;;12.13;;
13805;SDS011;6974;53.606;9.872;2023-03-23T04:13:36;13.80;;;12.43;;
13805;SDS011;6974;53.606;9.872;2023-03-23T04:16:03;13.17;;;11.80;;
13805;SDS011;6974;53.606;9.872;2023-03-23T04:18:31;13.73;;;12.50;;
13805;SDS011;6974;53.606;9.872;2023-03-23T04:21:00;13.50;;;12.20;;
13805;SDS011;6974;53.606;9.872;2023-03-23T04:23:28;13.93;;;12.60;;
13805;SDS011;6974;53.606;9.872;2023-03-23T04:26:00;14.73;;;12.40;;
13805;SDS011;6974;53.606;9.872;2023-03-23T04:28:28;15.47;;;12.93;;
13805;SDS011;6974;53.606;9.872;2023-03-23T04:30:58;14.07;;;12.10;;
13805;SDS011;6974;53.606;9.872;2023-03-23T04:33:27;13.47;;;11.93;;
13805;SDS011;6974;53.606;9.872;2023-03-23T04:35:58;13.13;;;11.83;;
13805;SDS011;6974;53.606;9.872;2023-03-23T04:38:31;13.03;;;11.80;;
13805;SDS011;6974;53.606;9.872;2023-03-23T04:41:00;14.17;;;12.87;;
13805;SDS011;6974;53.606;9.872;2023-03-23T04:43:28;13.40;;;11.97;;
13805;SDS011;6974;53.606;9.872;2023-03-23T04:45:58;13.47;;;12.13;;
13805;SDS011;6974;53.606;9.872;2023-03-23T04:48:27;12.83;;;11.57;;
13805;SDS011;6974;53.606;9.872;2023-03-23T04:50:58;12.43;;;11.33;;
13805;SDS011;6974;53.606;9.872;2023-03-23T04:53:27;13.30;;;12.00;;
13805;SDS011;6974;53.606;9.872;2023-03-23T04:55:55;13.03;;;11.73;;
13805;SDS011;6974;53.606;9.872;2023-03-23T04:58:24;13.97;;;12.53;;
13805;SDS011;6974;53.606;9.872;2023-03-23T05:00:53;13.57;;;12.30;;
13805;SDS011;6974;53.606;9.872;2023-03-23T05:03:20;14.33;;;11.67;;
13805;SDS011;6974;53.606;9.872;2023-03-23T05:05:47;13.20;;;12.00;;
13805;SDS011;6974;53.606;9.872;2023-03-23T05:08:17;13.57;;;12.10;;
13805;SDS011;6974;53.606;9.872;2023-03-23T05:10:51;14.20;;;12.67;;
13805;SDS011;6974;53.606;9.872;2023-03-23T05:13:19;14.10;;;12.77;;
13805;SDS011;6974;53.606;9.872;2023-03-23T05:15:49;13.43;;;12.03;;
13805;SDS011;6974;53.606;9.872;2023-03-23T05:18:16;12.93;;;11.73;;
13805;SDS011;6974;53.606;9.872;2023-03-23T05:20:45;13.73;;;12.43;;
13805;SDS011;6974;53.606;9.872;2023-03-23T05:23:13;15.03;;;13.70;;
13805;SDS011;6974;53.606;9.872;2023-03-23T05:25:41;13.40;;;12.00;;
13805;SDS011;6974;53.606;9.872;2023-03-23T05:28:10;13.43;;;12.23;;
13805;SDS011;6974;53.606;9.872;2023-03-23T05:30:38;14.30;;;12.80;;
13805;SDS011;6974;53.606;9.872;2023-03-23T05:33:07;13.33;;;12.00;;
13805;SDS011;6974;53.606;9.872;2023-03-23T05:35:34;13.17;;;11.97;;
13805;SDS011;6974;53.606;9.872;2023-03-23T05:38:01;12.70;;;11.50;;
13805;SDS011;6974;53.606;9.872;2023-03-23T05:40:29;14.00;;;12.70;;
13805;SDS011;6974;53.606;9.872;2023-03-23T05:42:57;13.20;;;11.87;;
13805;SDS011;6974;53.606;9.872;2023-03-23T05:45:24;12.87;;;11.60;;
13805;SDS011;6974;53.606;9.872;2023-03-23T05:47:52;11.93;;;10.77;;
13805;SDS011;6974;53.606;9.872;2023-03-23T05:50:20;12.70;;;11.40;;
13805;SDS011;6974;53.606;9.872;2023-03-23T05:52:47;12.40;;;11.20;;
13805;SDS011;6974;53.606;9.872;2023-03-23T05:55:15;12.87;;;11.53;;
13805;SDS011;6974;53.606;9.872;2023-03-23T05:57:43;11.83;;;10.63;;
13805;SDS011;6974;53.606;9.872;2023-03-23T06:00:11;11.90;;;10.80;;
13805;SDS011;6974;53.606;9.872;2023-03-23T06:02:43;11.27;;;10.17;;
13805;SDS011;6974;53.606;9.872;2023-03-23T06:05:10;12.73;;;10.23;;
13805;SDS011;6974;53.606;9.872;2023-03-23T06:07:39;10.67;;;9.63;;
13805;SDS011;6974;53.606;9.872;2023-03-23T06:10:07;10.93;;;9.77;;
13805;SDS011;6974;53.606;9.872;2023-03-23T06:12:35;11.57;;;10.40;;
13805;SDS011;6974;53.606;9.872;2023-03-23T06:15:02;11.23;;;10.23;;
13805;SDS011;6974;53.606;9.872;2023-03-23T06:17:31;10.27;;;9.33;;
13805;SDS011;6974;53.606;9.872;2023-03-23T06:19:58;10.37;;;9.37;;
13805;SDS011;6974;53.606;9.872;2023-03-23T06:22:25;11.93;;;9.50;;
13805;SDS011;6974;53.606;9.872;2023-03-23T06:24:54;11.17;;;9.47;;
13805;SDS011;6974;53.606;9.872;2023-03-23T06:27:22;9.63;;;8.73;;
13805;SDS011;6974;53.606;9.872;2023-03-23T06:29:48;10.03;;;8.60;;
13805;SDS011;6974;53.606;9.872;2023-03-23T06:32:15;9.90;;;8.90;;
13805;SDS011;6974;53.606;9.872;2023-03-23T06:34:42;12.37;;;8.80;;
13805;SDS011;6974;53.606;9.872;2023-03-23T06:37:11;9.37;;;8.47;;
13805;SDS011;6974;53.606;9.872;2023-03-23T06:39:38;9.97;;;8.10;;
13805;SDS011;6974;53.606;9.872;2023-03-23T06:42:09;8.53;;;7.67;;
13805;SDS011;6974;53.606;9.872;2023-03-23T06:44:37;8.80;;;7.37;;
13805;SDS011;6974;53.606;9.872;2023-03-23T06:47:06;9.50;;;7.77;;
13805;SDS011;6974;53.606;9.872;2023-03-23T06:49:33;9.93;;;7.43;;
13805;SDS011;6974;53.606;9.872;2023-03-23T06:52:01;8.10;;;7.30;;
13805;SDS011;6974;53.606;9.872;2023-03-23T06:54:28;9.00;;;7.27;;
13805;SDS011;6974;53.606;9.872;2023-03-23T06:56:55;7.43;;;6.57;;
13805;SDS011;6974;53.606;9.872;2023-03-23T06:59:24;8.77;;;6.80;;
13805;SDS011;6974;53.606;9.872;2023-03-23T07:01:51;8.83;;;7.03;;
13805;SDS011;6974;53.606;9.872;2023-03-23T07:04:18;8.77;;;6.40;;
13805;SDS011;6974;53.606;9.872;2023-03-23T07:06:46;8.50;;;6.73;;
13805;SDS011;6974;53.606;9.872;2023-03-23T07:09:13;7.83;;;6.17;;
13805;SDS011;6974;53.606;9.872;2023-03-23T07:11:40;6.53;;;5.83;;
13805;SDS011;6974;53.606;9.872;2023-03-23T07:14:08;7.07;;;6.00;;
13805;SDS011;6974;53.606;9.872;2023-03-23T07:16:39;7.97;;;6.27;;
13805;SDS011;6974;53.606;9.872;2023-03-23T07:19:07;7.40;;;6.10;;
13805;SDS011;6974;53.606;9.872;2023-03-23T07:21:34;6.87;;;6.23;;
13805;SDS011;6974;53.606;9.872;2023-03-23T07:24:01;5.73;;;5.13;;
13805;SDS011;6974;53.606;9.872;2023-03-23T07:26:28;6.60;;;5.97;;
13805;SDS011;6974;53.606;9.872;2023-03-23T07:28:55;6.87;;;5.23;;
13805;SDS011;6974;53.606;9.872;2023-03-23T07:31:22;5.93;;;5.33;;
13805;SDS011;6974;53.606;9.872;2023-03-23T07:33:50;7.67;;;6.00;;
13805;SDS011;6974;53.606;9.872;2023-03-23T07:36:17;6.40;;;5.00;;
13805;SDS011;6974;53.606;9.872;2023-03-23T07:38:45;6.20;;;5.60;;
13805;SDS011;6974;53.606;9.872;2023-03-23T07:41:13;12.97;;;5.93;;
13805;SDS011;6974;53.606;9.872;2023-03-23T07:43:40;7.60;;;5.53;;
13805;SDS011;6974;53.606;9.872;2023-03-23T07:46:07;9.93;;;6.30;;
13805;SDS011;6974;53.606;9.872;2023-03-23T07:48:34;6.67;;;5.70;;
13805;SDS011;6974;53.606;9.872;2023-03-23T07:51:02;7.73;;;5.77;;
13805;SDS011;6974;53.606;9.872;2023-03-23T07:53:29;7.73;;;5.80;;
13805;SDS011;6974;53.606;9.872;2023-03-23T07:55:57;7.10;;;5.87;;
13805;SDS011;6974;53.606;9.872;2023-03-23T07:58:24;7.77;;;6.10;;
13805;SDS011;6974;53.606;9.872;2023-03-23T08:00:51;7.57;;;6.37;;
13805;SDS011;6974;53.606;9.872;2023-03-23T08:03:19;8.57;;;5.73;;
13805;SDS011;6974;53.606;9.872;2023-03-23T08:05:46;4.63;;;3.30;;
13805;SDS011;6974;53.606;9.872;2023-03-23T08:08:14;3.67;;;2.40;;
13805;SDS011;6974;53.606;9.872;2023-03-23T08:10:41;2.00;;;1.70;;
13805;SDS011;6974;53.606;9.872;2023-03-23T08:13:08;2.00;;;1.80;;
13805;SDS011;6974;53.606;9.872;2023-03-23T08:15:35;3.53;;;2.07;;
13805;SDS011;6974;53.606;9.872;2023-03-23T08:18:02;2.73;;;1.57;;
13805;SDS011;6974;53.606;9.872;2023-03-23T08:20:30;2.47;;;1.57;;
13805;SDS011;6974;53.606;9.872;2023-03-23T08:22:57;3.43;;;1.70;;
13805;SDS011;6974;53.606;9.872;2023-03-23T08:25:26;2.70;;;1.80;;
13805;SDS011;6974;53.606;9.872;2023-03-23T08:27:56;4.77;;;2.60;;
13805;SDS011;6974;53.606;9.872;2023-03-23T08:30:24;2.07;;;1.87;;
13805;SDS011;6974;53.606;9.872;2023-03-23T08:32:51;5.27;;;2.67;;
13805;SDS011;6974;53.606;9.872;2023-03-23T08:35:18;5.00;;;3.03;;
13805;SDS011;6974;53.606;9.872;2023-03-23T08:37:46;7.40;;;3.10;;
13805;SDS011;6974;53.606;9.872;2023-03-23T08:40:16;4.03;;;2.27;;
13805;SDS011;6974;53.606;9.872;2023-03-23T08:42:46;3.70;;;2.27;;
13805;SDS011;6974;53.606;9.872;2023-03-23T08:45:14;5.23;;;3.00;;
13805;SDS011;6974;53.606;9.872;2023-03-23T08:47:43;4.57;;;2.30;;
13805;SDS011;6974;53.606;9.872;2023-03-23T08:50:18;3.63;;;2.30;;
13805;SDS011;6974;53.606;9.872;2023-03-23T08:52:47;6.73;;;2.63;;
13805;SDS011;6974;53.606;9.872;2023-03-23T08:55:15;5.07;;;2.33;;
13805;SDS011;6974;53.606;9.872;2023-03-23T08:57:42;2.77;;;2.10;;
13805;SDS011;6974;53.606;9.872;2023-03-23T09:00:12;3.37;;;2.07;;
13805;SDS011;6974;53.606;9.872;2023-03-23T09:02:43;4.53;;;2.30;;
13805;SDS011;6974;53.606;9.872;2023-03-23T09:05:11;6.07;;;2.90;;
13805;SDS011;6974;53.606;9.872;2023-03-23T09:07:38;4.43;;;3.13;;
13805;SDS011;6974;53.606;9.872;2023-03-23T09:10:07;4.63;;;3.07;;
13805;SDS011;6974;53.606;9.872;2023-03-23T09:12:35;6.77;;;3.00;;
13805;SDS011;6974;53.606;9.872;2023-03-23T09:15:02;4.80;;;3.53;;
13805;SDS011;6974;53.606;9.872;2023-03-23T09:17:34;6.63;;;3.50;;
13805;SDS011;6974;53.606;9.872;2023-03-23T09:20:02;6.20;;;3.53;;
13805;SDS011;6974;53.606;9.872;2023-03-23T09:22:34;5.63;;;3.33;;
13805;SDS011;6974;53.606;9.872;2023-03-23T09:25:01;5.20;;;3.33;;
13805;SDS011;6974;53.606;9.872;2023-03-23T09:27:28;6.63;;;3.47;;
13805;SDS011;6974;53.606;9.872;2023-03-23T09:29:55;5.73;;;3.17;;
13805;SDS011;6974;53.606;9.872;2023-03-23T09:32:23;6.83;;;2.80;;
13805;SDS011;6974;53.606;9.872;2023-03-23T09:34:52;7.17;;;3.23;;
13805;SDS011;6974;53.606;9.872;2023-03-23T09:37:20;8.43;;;2.97;;
13805;SDS011;6974;53.606;9.872;2023-03-23T09:39:48;7.73;;;2.60;;
13805;SDS011;6974;53.606;9.872;2023-03-23T09:42:21;8.20;;;3.00;;
13805;SDS011;6974;53.606;9.872;2023-03-23T09:45:00;6.57;;;3.00;;
13805;SDS011;6974;53.606;9.872;2023-03-23T09:47:35;5.27;;;2.97;;
13805;SDS011;6974;53.606;9.872;2023-03-23T09:50:10;10.70;;;3.00;;
13805;SDS011;6974;53.606;9.872;2023-03-23T09:52:42;10.33;;;3.13;;
13805;SDS011;6974;53.606;9.872;2023-03-23T09:55:12;7.87;;;3.13;;
13805;SDS011;6974;53.606;9.872;2023-03-23T09:57:43;7.23;;;2.60;;
13805;SDS011;6974;53.606;9.872;2023-03-23T10:00:16;8.47;;;3.43;;
13805;SDS011;6974;53.606;9.872;2023-03-23T10:02:52;10.80;;;3.60;;
13805;SDS011;6974;53.606;9.872;2023-03-23T10:05:31;8.23;;;3.27;;
13805;SDS011;6974;53.606;9.872;2023-03-23T10:08:00;11.53;;;3.73;;
13805;SDS011;6974;53.606;9.872;2023-03-23T10:10:33;9.10;;;3.20;;
13805;SDS011;6974;53.606;9.872;2023-03-23T10:13:10;9.20;;;3.50;;
13805;SDS011;6974;53.606;9.872;2023-03-23T10:15:42;8.97;;;3.13;;
13805;SDS011;6974;53.606;9.872;2023-03-23T10:18:12;6.90;;;3.40;;
13805;SDS011;6974;53.606;9.872;2023-03-23T10:20:46;8.30;;;3.50;;
13805;SDS011;6974;53.606;9.872;2023-03-23T10:23:31;11.37;;;3.57;;
13805;SDS011;6974;53.606;9.872;2023-03-23T10:26:09;7.73;;;2.93;;
13805;SDS011;6974;53.606;9.872;2023-03-23T10:28:45;10.13;;;3.63;;
13805;SDS011;6974;53.606;9.872;2023-03-23T10:31:15;8.43;;;3.30;;
13805;SDS011;6974;53.606;9.872;2023-03-23T10:33:47;8.40;;;3.27;;
13805;SDS011;6974;53.606;9.872;2023-03-23T10:36:17;9.13;;;3.10;;
13805;SDS011;6974;53.606;9.872;2023-03-23T10:38:49;8.33;;;3.40;;
13805;SDS011;6974;53.606;9.872;2023-03-23T10:41:23;7.77;;;3.37;;
13805;SDS011;6974;53.606;9.872;2023-03-23T10:43:50;8.37;;;3.47;;
13805;SDS011;6974;53.606;9.872;2023-03-23T10:46:22;9.73;;;3.43;;
13805;SDS011;6974;53.606;9.872;2023-03-23T10:48:55;7.63;;;3.10;;
13805;SDS011;6974;53.606;9.872;2023-03-23T10:51:27;10.00;;;3.20;;
13805;SDS011;6974;53.606;9.872;2023-03-23T10:53:58;9.20;;;3.47;;
13805;SDS011;6974;53.606;9.872;2023-03-23T10:56:34;9.20;;;3.50;;
13805;SDS011;6974;53.606;9.872;2023-03-23T10:59:10;14.87;;;3.70;;
13805;SDS011;6974;53.606;9.872;2023-03-23T11:01:39;7.10;;;3.13;;
13805;SDS011;6974;53.606;9.872;2023-03-23T11:04:11;11.37;;;3.30;;
13805;SDS011;6974;53.606;9.872;2023-03-23T11:06:43;8.97;;;3.17;;
13805;SDS011;6974;53.606;9.872;2023-03-23T11:09:12;10.73;;;3.60;;
13805;SDS011;6974;53.606;9.872;2023-03-23T11:11:40;10.70;;;3.07;;
13805;SDS011;6974;53.606;9.872;2023-03-23T11:14:16;15.03;;;4.00;;
13805;SDS011;6974;53.606;9.872;2023-03-23T11:16:45;10.67;;;3.73;;
13805;SDS011;6974;53.606;9.872;2023-03-23T11:19:21;11.10;;;3.23;;
13805;SDS011;6974;53.606;9.872;2023-03-23T11:21:51;11.77;;;3.70;;
13805;SDS011;6974;53.606;9.872;2023-03-23T11:24:21;11.83;;;3.20;;
13805;SDS011;6974;53.606;9.872;2023-03-23T11:26:49;12.10;;;3.87;;
13805;SDS011;6974;53.606;9.872;2023-03-23T11:29:18;14.57;;;3.70;;
13805;SDS011;6974;53.606;9.872;2023-03-23T11:31:48;10.93;;;3.97;;
13805;SDS011;6974;53.606;9.872;2023-03-23T11:34:18;9.93;;;3.63;;
13805;SDS011;6974;53.606;9.872;2023-03-23T11:36:47;9.57;;;3.73;;
13805;SDS011;6974;53.606;9.872;2023-03-23T11:39:24;16.20;;;3.70;;
13805;SDS011;6974;53.606;9.872;2023-03-23T11:41:52;14.13;;;3.80;;
13805;SDS011;6974;53.606;9.872;2023-03-23T11:44:20;12.57;;;3.97;;
13805;SDS011;6974;53.606;9.872;2023-03-23T11:46:50;9.73;;;3.80;;
13805;SDS011;6974;53.606;9.872;2023-03-23T11:49:30;9.30;;;3.50;;
13805;SDS011;6974;53.606;9.872;2023-03-23T11:52:09;13.13;;;3.80;;
13805;SDS011;6974;53.606;9.872;2023-03-23T11:54:43;11.70;;;4.20;;
13805;SDS011;6974;53.606;9.872;2023-03-23T11:57:16;11.17;;;3.90;;
13805;SDS011;6974;53.606;9.872;2023-03-23T11:59:43;12.67;;;3.77;;
13805;SDS011;6974;53.606;9.872;2023-03-23T12:02:32;8.67;;;4.13;;
13805;SDS011;6974;53.606;9.872;2023-03-23T12:08:17;11.37;;;3.27;;
13805;SDS011;6974;53.606;9.872;2023-03-23T12:11:06;11.43;;;3.23;;
13805;SDS011;6974;53.606;9.872;2023-03-23T12:13:42;9.40;;;3.73;;
13805;SDS011;6974;53.606;9.872;2023-03-23T12:16:29;11.27;;;3.87;;
13805;SDS011;6974;53.606;9.872;2023-03-23T12:19:02;10.43;;;3.77;;
13805;SDS011;6974;53.606;9.872;2023-03-23T12:21:37;9.13;;;3.33;;
13805;SDS011;6974;53.606;9.872;2023-03-23T12:24:12;10.70;;;3.83;;
13805;SDS011;6974;53.606;9.872;2023-03-23T12:26:53;6.90;;;3.70;;
13805;SDS011;6974;53.606;9.872;2023-03-23T12:29:37;10.07;;;3.57;;
13805;SDS011;6974;53.606;9.872;2023-03-23T12:32:26;7.77;;;3.47;;
13805;SDS011;6974;53.606;9.872;2023-03-23T12:35:06;7.97;;;3.87;;
13805;SDS011;6974;53.606;9.872;2023-03-23T12:37:46;8.67;;;3.83;;
13805;SDS011;6974;53.606;9.872;2023-03-23T12:40:36;9.73;;;3.70;;
13805;SDS011;6974;53.606;9.872;2023-03-23T12:43:18;7.50;;;3.93;;
13805;SDS011;6974;53.606;9.872;2023-03-23T12:45:57;10.93;;;4.13;;
13805;SDS011;6974;53.606;9.872;2023-03-23T12:48:33;7.67;;;3.27;;
13805;SDS011;6974;53.606;9.872;2023-03-23T12:51:08;10.13;;;3.60;;
13805;SDS011;6974;53.606;9.872;2023-03-23T12:53:46;8.90;;;3.73;;
13805;SDS011;6974;53.606;9.872;2023-03-23T12:56:19;8.03;;;4.00;;
13805;SDS011;6974;53.606;9.872;2023-03-23T12:58:53;8.63;;;3.80;;
13805;SDS011;6974;53.606;9.872;2023-03-23T13:01:28;8.67;;;3.83;;
13805;SDS011;6974;53.606;9.872;2023-03-23T13:03:59;7.97;;;4.10;;
13805;SDS011;6974;53.606;9.872;2023-03-23T13:06:29;11.43;;;4.50;;
13805;SDS011;6974;53.606;9.872;2023-03-23T13:09:04;11.00;;;3.80;;
13805;SDS011;6974;53.606;9.872;2023-03-23T13:11:38;13.70;;;4.50;;
13805;SDS011;6974;53.606;9.872;2023-03-23T13:17:03;10.23;;;4.10;;
13805;SDS011;6974;53.606;9.872;2023-03-23T13:19:39;10.63;;;3.57;;
13805;SDS011;6974;53.606;9.872;2023-03-23T13:22:17;10.60;;;4.67;;
13805;SDS011;6974;53.606;9.872;2023-03-23T13:24:49;7.67;;;4.20;;
13805;SDS011;6974;53.606;9.872;2023-03-23T13:27:22;9.97;;;3.73;;
13805;SDS011;6974;53.606;9.872;2023-03-23T13:29:52;7.53;;;3.60;;
13805;SDS011;6974;53.606;9.872;2023-03-23T13:32:19;7.43;;;3.70;;
13805;SDS011;6974;53.606;9.872;2023-03-23T13:34:48;8.40;;;3.90;;
13805;SDS011;6974;53.606;9.872;2023-03-23T13:37:20;7.80;;;3.70;;
13805;SDS011;6974;53.606;9.872;2023-03-23T13:39:50;7.00;;;3.23;;
13805;SDS011;6974;53.606;9.872;2023-03-23T13:42:21;7.17;;;3.60;;
13805;SDS011;6974;53.606;9.872;2023-03-23T13:47:49;8.67;;;3.77;;
13805;SDS011;6974;53.606;9.872;2023-03-23T13:50:30;7.00;;;3.20;;
13805;SDS011;6974;53.606;9.872;2023-03-23T13:53:13;5.80;;;2.10;;
13805;SDS011;6974;53.606;9.872;2023-03-23T13:55:42;4.17;;;1.93;;
13805;SDS011;6974;53.606;9.872;2023-03-23T13:58:21;3.80;;;1.67;;
13805;SDS011;6974;53.606;9.872;2023-03-23T14:01:09;3.50;;;1.60;;
13805;SDS011;6974;53.606;9.872;2023-03-23T14:03:41;2.60;;;1.60;;
13805;SDS011;6974;53.606;9.872;2023-03-23T14:06:15;5.07;;;1.93;;
13805;SDS011;6974;53.606;9.872;2023-03-23T14:08:45;5.27;;;1.90;;
13805;SDS011;6974;53.606;9.872;2023-03-23T14:11:18;5.23;;;1.70;;
13805;SDS011;6974;53.606;9.872;2023-03-23T14:13:50;3.67;;;2.10;;
13805;SDS011;6974;53.606;9.872;2023-03-23T14:16:31;4.93;;;2.33;;
13805;SDS011;6974;53.606;9.872;2023-03-23T14:19:03;4.67;;;2.73;;
13805;SDS011;6974;53.606;9.872;2023-03-23T14:21:40;5.13;;;2.70;;
13805;SDS011;6974;53.606;9.872;2023-03-23T14:24:15;6.47;;;2.70;;
13805;SDS011;6974;53.606;9.872;2023-03-23T14:26:44;4.07;;;2.80;;
13805;SDS011;6974;53.606;9.872;2023-03-23T14:29:12;5.27;;;3.30;;
13805;SDS011;6974;53.606;9.872;2023-03-23T14:31:41;4.00;;;2.53;;
13805;SDS011;6974;53.606;9.872;2023-03-23T14:34:12;6.97;;;2.83;;
13805;SDS011;6974;53.606;9.872;2023-03-23T14:36:40;4.07;;;2.00;;
13805;SDS011;6974;53.606;9.872;2023-03-23T14:39:13;6.23;;;2.57;;
13805;SDS011;6974;53.606;9.872;2023-03-23T14:41:44;4.80;;;2.23;;
13805;SDS011;6974;53.606;9.872;2023-03-23T14:44:12;4.77;;;2.23;;
13805;SDS011;6974;53.606;9.872;2023-03-23T14:46:43;4.70;;;2.43;;
13805;SDS011;6974;53.606;9.872;2023-03-23T14:49:12;5.33;;;2.43;;
13805;SDS011;6974;53.606;9.872;2023-03-23T14:51:47;3.90;;;1.93;;
13805;SDS011;6974;53.606;9.872;2023-03-23T14:54:18;5.73;;;2.30;;
13805;SDS011;6974;53.606;9.872;2023-03-23T14:56:49;5.57;;;2.20;;
13805;SDS011;6974;53.606;9.872;2023-03-23T14:59:18;5.67;;;2.20;;
13805;SDS011;6974;53.606;9.872;2023-03-23T15:01:47;3.67;;;1.87;;
13805;SDS011;6974;53.606;9.872;2023-03-23T15:04:18;5.97;;;2.40;;
13805;SDS011;6974;53.606;9.872;2023-03-23T15:06:48;6.27;;;2.53;;
13805;SDS011;6974;53.606;9.872;2023-03-23T15:09:18;4.13;;;1.97;;
13805;SDS011;6974;53.606;9.872;2023-03-23T15:11:52;5.40;;;2.00;;
13805;SDS011;6974;53.606;9.872;2023-03-23T15:14:23;4.50;;;2.30;;
13805;SDS011;6974;53.606;9.872;2023-03-23T15:16:55;5.87;;;2.30;;
13805;SDS011;6974;53.606;9.872;2023-03-23T15:19:24;4.70;;;2.90;;
13805;SDS011;6974;53.606;9.872;2023-03-23T15:21:55;6.60;;;2.77;;
13805;SDS011;6974;53.606;9.872;2023-03-23T15:24:30;4.00;;;2.30;;
13805;SDS011;6974;53.606;9.872;2023-03-23T15:29:51;4.90;;;2.20;;
13805;SDS011;6974;53.606;9.872;2023-03-23T15:32:25;7.53;;;3.00;;
13805;SDS011;6974;53.606;9.872;2023-03-23T15:34:53;6.87;;;2.90;;